sensor_id;sensor_type;location;lat;lon;timestamp;temperature;humidity
52127;DHT22;38120;53.176;6.614;2022-08-14T00:00:16;20.60;99.90
52127;DHT22;38120;53.176;6.614;2022-08-14T00:02:43;20.60;99.90
52127;DHT22;38120;53.176;6.614;2022-08-14T00:05:11;20.50;99.90
52127;DHT22;38120;53.176;6.614;2022-08-14T00:07:38;20.60;99.90
52127;DHT22;38120;53.176;6.614;2022-08-14T00:10:05;20.60;99.90
52127;DHT22;38120;53.176;6.614;2022-08-14T00:12:36;20.50;99.90
52127;DHT22;38120;53.176;6.614;2022-08-14T00:15:04;20.40;99.90
52127;DHT22;38120;53.176;6.614;2022-08-14T00:17:30;20.40;99.90
52127;DHT22;38120;53.176;6.614;2022-08-14T00:19:56;20.40;99.90
52127;DHT22;38120;53.176;6.614;2022-08-14T00:22:22;20.30;99.90
52127;DHT22;38120;53.176;6.614;2022-08-14T00:24:47;20.30;99.90
52127;DHT22;38120;53.176;6.614;2022-08-14T00:27:13;20.20;99.90
52127;DHT22;38120;53.176;6.614;2022-08-14T00:29:39;20.20;99.90
52127;DHT22;38120;53.176;6.614;2022-08-14T00:32:05;20.10;99.90
52127;DHT22;38120;53.176;6.614;2022-08-14T00:34:30;20.10;99.90
52127;DHT22;38120;53.176;6.614;2022-08-14T00:36:56;20.10;99.90
52127;DHT22;38120;53.176;6.614;2022-08-14T00:39:22;20.00;99.90
52127;DHT22;38120;53.176;6.614;2022-08-14T00:41:48;20.00;99.90
52127;DHT22;38120;53.176;6.614;2022-08-14T00:44:15;20.00;99.90
52127;DHT22;38120;53.176;6.614;2022-08-14T00:46:41;20.00;99.90
52127;DHT22;38120;53.176;6.614;2022-08-14T00:49:07;19.90;99.90
52127;DHT22;38120;53.176;6.614;2022-08-14T00:51:34;19.90;99.90
52127;DHT22;38120;53.176;6.614;2022-08-14T00:54:00;19.90;99.90
52127;DHT22;38120;53.176;6.614;2022-08-14T00:56:28;19.90;99.90
52127;DHT22;38120;53.176;6.614;2022-08-14T00:58:54;19.90;99.90
52127;DHT22;38120;53.176;6.614;2022-08-14T01:01:24;20.00;99.90
52127;DHT22;38120;53.176;6.614;2022-08-14T01:03:52;19.80;99.90
52127;DHT22;38120;53.176;6.614;2022-08-14T01:06:17;19.80;99.90
52127;DHT22;38120;53.176;6.614;2022-08-14T01:08:44;19.70;99.90
52127;DHT22;38120;53.176;6.614;2022-08-14T01:11:11;19.70;99.90
52127;DHT22;38120;53.176;6.614;2022-08-14T01:13:42;19.60;99.90
52127;DHT22;38120;53.176;6.614;2022-08-14T01:16:11;19.60;99.90
52127;DHT22;38120;53.176;6.614;2022-08-14T01:18:37;19.70;99.90
52127;DHT22;38120;53.176;6.614;2022-08-14T01:21:30;19.70;99.90
52127;DHT22;38120;53.176;6.614;2022-08-14T01:23:56;19.60;99.90
52127;DHT22;38120;53.176;6.614;2022-08-14T01:26:23;19.60;99.90
52127;DHT22;38120;53.176;6.614;2022-08-14T01:28:54;19.60;99.90
52127;DHT22;38120;53.176;6.614;2022-08-14T01:31:27;19.60;99.90
52127;DHT22;38120;53.176;6.614;2022-08-14T01:33:55;19.60;99.90
52127;DHT22;38120;53.176;6.614;2022-08-14T01:36:23;19.60;99.90
52127;DHT22;38120;53.176;6.614;2022-08-14T01:38:51;19.50;99.90
52127;DHT22;38120;53.176;6.614;2022-08-14T01:41:24;19.50;99.90
52127;DHT22;38120;53.176;6.614;2022-08-14T01:44:01;19.40;99.90
52127;DHT22;38120;53.176;6.614;2022-08-14T01:46:30;19.40;99.90
52127;DHT22;38120;53.176;6.614;2022-08-14T01:48:59;19.40;99.90
52127;DHT22;38120;53.176;6.614;2022-08-14T01:51:26;19.30;99.90
52127;DHT22;38120;53.176;6.614;2022-08-14T01:53:59;19.40;99.90
52127;DHT22;38120;53.176;6.614;2022-08-14T01:56:32;19.40;99.90
52127;DHT22;38120;53.176;6.614;2022-08-14T01:59:04;19.40;99.90
52127;DHT22;38120;53.176;6.614;2022-08-14T02:01:30;19.40;99.90
52127;DHT22;38120;53.176;6.614;2022-08-14T02:03:56;19.30;99.90
52127;DHT22;38120;53.176;6.614;2022-08-14T02:06:22;19.40;99.90
52127;DHT22;38120;53.176;6.614;2022-08-14T02:08:51;19.40;99.90
52127;DHT22;38120;53.176;6.614;2022-08-14T02:11:17;19.30;99.90
52127;DHT22;38120;53.176;6.614;2022-08-14T02:16:16;19.20;99.90
52127;DHT22;38120;53.176;6.614;2022-08-14T02:18:42;19.20;99.90
52127;DHT22;38120;53.176;6.614;2022-08-14T02:21:11;19.20;99.90
52127;DHT22;38120;53.176;6.614;2022-08-14T02:23:39;19.20;99.90
52127;DHT22;38120;53.176;6.614;2022-08-14T02:26:18;19.20;99.90
52127;DHT22;38120;53.176;6.614;2022-08-14T02:28:44;19.20;99.90
52127;DHT22;38120;53.176;6.614;2022-08-14T02:31:12;19.10;99.90
52127;DHT22;38120;53.176;6.614;2022-08-14T02:33:39;19.10;99.90
52127;DHT22;38120;53.176;6.614;2022-08-14T02:36:07;19.10;99.90
52127;DHT22;38120;53.176;6.614;2022-08-14T02:38:34;19.10;99.90
52127;DHT22;38120;53.176;6.614;2022-08-14T02:41:00;19.00;99.90
52127;DHT22;38120;53.176;6.614;2022-08-14T02:43:26;19.10;99.90
52127;DHT22;38120;53.176;6.614;2022-08-14T02:45:55;19.10;99.90
52127;DHT22;38120;53.176;6.614;2022-08-14T02:48:21;19.00;99.90
52127;DHT22;38120;53.176;6.614;2022-08-14T02:50:46;18.90;99.90
52127;DHT22;38120;53.176;6.614;2022-08-14T02:53:12;18.90;99.90
52127;DHT22;38120;53.176;6.614;2022-08-14T02:55:41;18.90;99.90
52127;DHT22;38120;53.176;6.614;2022-08-14T02:58:08;18.90;99.90
52127;DHT22;38120;53.176;6.614;2022-08-14T03:00:34;19.00;99.90
52127;DHT22;38120;53.176;6.614;2022-08-14T03:03:01;18.90;99.90
52127;DHT22;38120;53.176;6.614;2022-08-14T03:05:27;18.90;99.90
52127;DHT22;38120;53.176;6.614;2022-08-14T03:08:04;18.80;99.90
52127;DHT22;38120;53.176;6.614;2022-08-14T03:10:30;18.80;99.90
52127;DHT22;38120;53.176;6.614;2022-08-14T03:12:56;18.90;99.90
52127;DHT22;38120;53.176;6.614;2022-08-14T03:15:22;18.80;99.90
52127;DHT22;38120;53.176;6.614;2022-08-14T03:17:48;18.80;99.90
52127;DHT22;38120;53.176;6.614;2022-08-14T03:20:17;18.70;99.90
52127;DHT22;38120;53.176;6.614;2022-08-14T03:22:43;18.70;99.90
52127;DHT22;38120;53.176;6.614;2022-08-14T03:25:09;18.70;99.90
52127;DHT22;38120;53.176;6.614;2022-08-14T03:27:37;18.70;99.90
52127;DHT22;38120;53.176;6.614;2022-08-14T03:30:03;18.60;99.90
52127;DHT22;38120;53.176;6.614;2022-08-14T03:32:28;18.60;99.90
52127;DHT22;38120;53.176;6.614;2022-08-14T03:34:55;18.60;99.90
52127;DHT22;38120;53.176;6.614;2022-08-14T03:37:21;18.60;99.90
52127;DHT22;38120;53.176;6.614;2022-08-14T03:39:46;18.70;99.90
52127;DHT22;38120;53.176;6.614;2022-08-14T03:42:12;18.60;99.90
52127;DHT22;38120;53.176;6.614;2022-08-14T03:44:38;18.60;99.90
52127;DHT22;38120;53.176;6.614;2022-08-14T03:47:08;18.50;99.90
52127;DHT22;38120;53.176;6.614;2022-08-14T03:49:34;18.50;99.90
52127;DHT22;38120;53.176;6.614;2022-08-14T03:52:00;18.50;99.90
52127;DHT22;38120;53.176;6.614;2022-08-14T03:54:29;18.50;99.90
52127;DHT22;38120;53.176;6.614;2022-08-14T03:56:56;18.50;99.90
52127;DHT22;38120;53.176;6.614;2022-08-14T03:59:25;18.50;99.90
52127;DHT22;38120;53.176;6.614;2022-08-14T04:01:51;18.50;99.90
52127;DHT22;38120;53.176;6.614;2022-08-14T04:04:17;18.40;99.90
52127;DHT22;38120;53.176;6.614;2022-08-14T04:06:43;18.40;99.90
52127;DHT22;38120;53.176;6.614;2022-08-14T04:09:09;18.40;99.90
52127;DHT22;38120;53.176;6.614;2022-08-14T04:11:37;18.50;99.90
52127;DHT22;38120;53.176;6.614;2022-08-14T04:14:04;18.50;99.90
52127;DHT22;38120;53.176;6.614;2022-08-14T04:16:30;18.40;99.90
52127;DHT22;38120;53.176;6.614;2022-08-14T04:18:57;18.40;99.90
52127;DHT22;38120;53.176;6.614;2022-08-14T04:21:26;18.40;99.90
52127;DHT22;38120;53.176;6.614;2022-08-14T04:23:56;18.40;99.90
52127;DHT22;38120;53.176;6.614;2022-08-14T04:26:23;18.30;99.90
52127;DHT22;38120;53.176;6.614;2022-08-14T04:28:49;18.40;99.90
52127;DHT22;38120;53.176;6.614;2022-08-14T04:31:19;18.40;99.90
52127;DHT22;38120;53.176;6.614;2022-08-14T04:33:45;18.40;99.90
52127;DHT22;38120;53.176;6.614;2022-08-14T04:36:12;18.40;99.90
52127;DHT22;38120;53.176;6.614;2022-08-14T04:38:41;18.40;99.90
52127;DHT22;38120;53.176;6.614;2022-08-14T04:41:25;18.40;99.90
52127;DHT22;38120;53.176;6.614;2022-08-14T04:44:09;18.30;99.90
52127;DHT22;38120;53.176;6.614;2022-08-14T04:46:35;18.30;99.90
52127;DHT22;38120;53.176;6.614;2022-08-14T04:49:02;18.30;99.90
52127;DHT22;38120;53.176;6.614;2022-08-14T04:51:28;18.30;99.90
52127;DHT22;38120;53.176;6.614;2022-08-14T04:53:55;18.40;99.90
52127;DHT22;38120;53.176;6.614;2022-08-14T04:56:23;18.40;99.90
52127;DHT22;38120;53.176;6.614;2022-08-14T04:58:50;18.40;99.90
52127;DHT22;38120;53.176;6.614;2022-08-14T05:01:23;18.40;99.90
52127;DHT22;38120;53.176;6.614;2022-08-14T05:03:48;18.30;99.90
52127;DHT22;38120;53.176;6.614;2022-08-14T05:06:14;18.30;99.90
52127;DHT22;38120;53.176;6.614;2022-08-14T05:08:40;18.40;99.90
52127;DHT22;38120;53.176;6.614;2022-08-14T05:11:08;18.40;99.90
52127;DHT22;38120;53.176;6.614;2022-08-14T05:13:35;18.40;99.90
52127;DHT22;38120;53.176;6.614;2022-08-14T05:16:04;18.40;99.90
52127;DHT22;38120;53.176;6.614;2022-08-14T05:18:35;18.40;99.90
52127;DHT22;38120;53.176;6.614;2022-08-14T05:21:05;18.40;99.90
52127;DHT22;38120;53.176;6.614;2022-08-14T05:23:33;18.50;99.90
52127;DHT22;38120;53.176;6.614;2022-08-14T05:25:59;18.60;99.90
52127;DHT22;38120;53.176;6.614;2022-08-14T05:28:30;18.70;99.90
52127;DHT22;38120;53.176;6.614;2022-08-14T05:30:58;18.80;99.90
52127;DHT22;38120;53.176;6.614;2022-08-14T05:33:27;18.90;99.90
52127;DHT22;38120;53.176;6.614;2022-08-14T05:35:54;19.00;99.90
52127;DHT22;38120;53.176;6.614;2022-08-14T05:38:44;19.20;99.90
52127;DHT22;38120;53.176;6.614;2022-08-14T05:41:15;19.30;99.90
52127;DHT22;38120;53.176;6.614;2022-08-14T05:43:43;19.50;99.90
52127;DHT22;38120;53.176;6.614;2022-08-14T05:46:11;19.70;99.90
52127;DHT22;38120;53.176;6.614;2022-08-14T05:48:37;19.90;99.90
52127;DHT22;38120;53.176;6.614;2022-08-14T05:51:03;20.00;99.90
52127;DHT22;38120;53.176;6.614;2022-08-14T05:53:29;20.20;99.90
52127;DHT22;38120;53.176;6.614;2022-08-14T05:55:55;20.30;99.90
52127;DHT22;38120;53.176;6.614;2022-08-14T05:58:21;20.50;99.90
52127;DHT22;38120;53.176;6.614;2022-08-14T06:00:47;20.60;99.90
52127;DHT22;38120;53.176;6.614;2022-08-14T06:03:19;20.70;99.90
52127;DHT22;38120;53.176;6.614;2022-08-14T06:05:46;20.90;99.90
52127;DHT22;38120;53.176;6.614;2022-08-14T06:10:44;21.10;99.90
52127;DHT22;38120;53.176;6.614;2022-08-14T06:13:10;21.30;99.90
52127;DHT22;38120;53.176;6.614;2022-08-14T06:15:36;21.50;99.90
52127;DHT22;38120;53.176;6.614;2022-08-14T06:18:02;21.60;99.90
52127;DHT22;38120;53.176;6.614;2022-08-14T06:20:28;21.70;99.90
52127;DHT22;38120;53.176;6.614;2022-08-14T06:22:54;21.80;99.90
52127;DHT22;38120;53.176;6.614;2022-08-14T06:25:20;21.90;99.90
52127;DHT22;38120;53.176;6.614;2022-08-14T06:27:47;22.00;99.90
52127;DHT22;38120;53.176;6.614;2022-08-14T06:30:19;22.00;99.90
52127;DHT22;38120;53.176;6.614;2022-08-14T06:32:45;22.10;99.90
52127;DHT22;38120;53.176;6.614;2022-08-14T06:35:13;22.20;99.90
52127;DHT22;38120;53.176;6.614;2022-08-14T06:37:41;22.30;99.90
52127;DHT22;38120;53.176;6.614;2022-08-14T06:40:08;22.30;99.90
52127;DHT22;38120;53.176;6.614;2022-08-14T06:42:34;22.40;99.90
52127;DHT22;38120;53.176;6.614;2022-08-14T06:44:59;22.40;99.90
52127;DHT22;38120;53.176;6.614;2022-08-14T06:47:28;22.50;99.90
52127;DHT22;38120;53.176;6.614;2022-08-14T06:49:53;22.60;99.90
52127;DHT22;38120;53.176;6.614;2022-08-14T06:52:19;22.60;99.90
52127;DHT22;38120;53.176;6.614;2022-08-14T06:54:46;22.70;99.90
52127;DHT22;38120;53.176;6.614;2022-08-14T06:57:12;22.70;99.90
52127;DHT22;38120;53.176;6.614;2022-08-14T06:59:37;22.80;99.90
52127;DHT22;38120;53.176;6.614;2022-08-14T07:02:03;22.90;99.90
52127;DHT22;38120;53.176;6.614;2022-08-14T07:04:47;22.90;99.90
52127;DHT22;38120;53.176;6.614;2022-08-14T07:07:38;23.00;99.90
52127;DHT22;38120;53.176;6.614;2022-08-14T07:10:06;23.10;99.90
52127;DHT22;38120;53.176;6.614;2022-08-14T07:12:33;23.20;99.90
52127;DHT22;38120;53.176;6.614;2022-08-14T07:14:59;23.30;99.90
52127;DHT22;38120;53.176;6.614;2022-08-14T07:17:25;23.40;99.90
52127;DHT22;38120;53.176;6.614;2022-08-14T07:19:51;23.50;99.90
52127;DHT22;38120;53.176;6.614;2022-08-14T07:22:17;23.50;99.90
52127;DHT22;38120;53.176;6.614;2022-08-14T07:24:43;23.60;99.90
52127;DHT22;38120;53.176;6.614;2022-08-14T07:27:09;23.70;99.90
52127;DHT22;38120;53.176;6.614;2022-08-14T07:29:35;23.80;99.90
52127;DHT22;38120;53.176;6.614;2022-08-14T07:32:00;23.90;99.90
52127;DHT22;38120;53.176;6.614;2022-08-14T07:34:26;24.00;99.90
52127;DHT22;38120;53.176;6.614;2022-08-14T07:36:54;24.10;99.90
52127;DHT22;38120;53.176;6.614;2022-08-14T07:39:19;24.20;99.90
52127;DHT22;38120;53.176;6.614;2022-08-14T07:41:45;24.30;99.90
52127;DHT22;38120;53.176;6.614;2022-08-14T07:44:11;24.30;99.90
52127;DHT22;38120;53.176;6.614;2022-08-14T07:46:38;24.40;99.90
52127;DHT22;38120;53.176;6.614;2022-08-14T07:49:05;24.60;99.90
52127;DHT22;38120;53.176;6.614;2022-08-14T07:51:32;24.70;99.90
52127;DHT22;38120;53.176;6.614;2022-08-14T07:53:58;24.80;99.90
52127;DHT22;38120;53.176;6.614;2022-08-14T07:56:24;24.90;99.90
52127;DHT22;38120;53.176;6.614;2022-08-14T07:58:50;24.90;99.90
52127;DHT22;38120;53.176;6.614;2022-08-14T08:01:17;25.00;99.90
52127;DHT22;38120;53.176;6.614;2022-08-14T08:03:45;25.10;99.90
52127;DHT22;38120;53.176;6.614;2022-08-14T08:06:13;25.20;99.90
52127;DHT22;38120;53.176;6.614;2022-08-14T08:08:42;25.30;99.90
52127;DHT22;38120;53.176;6.614;2022-08-14T08:11:10;25.40;99.90
52127;DHT22;38120;53.176;6.614;2022-08-14T08:13:40;25.50;99.90
52127;DHT22;38120;53.176;6.614;2022-08-14T08:16:06;25.70;99.90
52127;DHT22;38120;53.176;6.614;2022-08-14T08:18:33;25.90;99.90
52127;DHT22;38120;53.176;6.614;2022-08-14T08:20:59;25.80;99.90
52127;DHT22;38120;53.176;6.614;2022-08-14T08:23:25;25.90;99.90
52127;DHT22;38120;53.176;6.614;2022-08-14T08:25:53;26.00;99.90
52127;DHT22;38120;53.176;6.614;2022-08-14T08:28:22;26.10;99.90
52127;DHT22;38120;53.176;6.614;2022-08-14T08:30:54;26.10;99.90
52127;DHT22;38120;53.176;6.614;2022-08-14T08:33:22;26.10;99.90
52127;DHT22;38120;53.176;6.614;2022-08-14T08:35:50;26.10;99.90
52127;DHT22;38120;53.176;6.614;2022-08-14T08:38:18;26.20;99.90
52127;DHT22;38120;53.176;6.614;2022-08-14T08:40:49;26.30;99.90
52127;DHT22;38120;53.176;6.614;2022-08-14T08:43:22;26.40;99.90
52127;DHT22;38120;53.176;6.614;2022-08-14T08:45:58;26.50;99.90
52127;DHT22;38120;53.176;6.614;2022-08-14T08:48:26;26.60;99.90
52127;DHT22;38120;53.176;6.614;2022-08-14T08:51:00;26.70;99.90
52127;DHT22;38120;53.176;6.614;2022-08-14T08:53:33;26.70;99.90
52127;DHT22;38120;53.176;6.614;2022-08-14T08:56:00;26.70;99.90
52127;DHT22;38120;53.176;6.614;2022-08-14T08:58:26;26.90;99.90
52127;DHT22;38120;53.176;6.614;2022-08-14T09:00:53;27.00;99.90
52127;DHT22;38120;53.176;6.614;2022-08-14T09:03:26;26.90;1.00
52127;DHT22;38120;53.176;6.614;2022-08-14T09:06:03;27.00;1.00
52127;DHT22;38120;53.176;6.614;2022-08-14T09:08:35;27.00;1.00
52127;DHT22;38120;53.176;6.614;2022-08-14T09:11:06;27.10;1.00
52127;DHT22;38120;53.176;6.614;2022-08-14T09:13:36;27.30;1.00
52127;DHT22;38120;53.176;6.614;2022-08-14T09:16:03;27.60;1.00
52127;DHT22;38120;53.176;6.614;2022-08-14T09:18:29;27.30;99.90
52127;DHT22;38120;53.176;6.614;2022-08-14T09:20:55;27.40;99.90
52127;DHT22;38120;53.176;6.614;2022-08-14T09:23:22;27.50;99.90
52127;DHT22;38120;53.176;6.614;2022-08-14T09:25:49;27.50;99.90
52127;DHT22;38120;53.176;6.614;2022-08-14T09:28:17;27.60;99.90
52127;DHT22;38120;53.176;6.614;2022-08-14T09:30:54;27.70;99.90
52127;DHT22;38120;53.176;6.614;2022-08-14T09:33:46;27.80;99.90
52127;DHT22;38120;53.176;6.614;2022-08-14T09:47:07;28.00;99.90
52127;DHT22;38120;53.176;6.614;2022-08-14T09:49:37;28.10;99.90
52127;DHT22;38120;53.176;6.614;2022-08-14T09:52:05;28.20;99.90
52127;DHT22;38120;53.176;6.614;2022-08-14T09:54:37;28.20;99.90
52127;DHT22;38120;53.176;6.614;2022-08-14T09:57:04;28.20;99.90
52127;DHT22;38120;53.176;6.614;2022-08-14T09:59:39;28.20;91.70
52127;DHT22;38120;53.176;6.614;2022-08-14T10:02:21;28.40;1.00
52127;DHT22;38120;53.176;6.614;2022-08-14T10:04:59;28.60;1.00
52127;DHT22;38120;53.176;6.614;2022-08-14T10:07:33;28.50;1.00
52127;DHT22;38120;53.176;6.614;2022-08-14T10:10:00;28.60;1.00
52127;DHT22;38120;53.176;6.614;2022-08-14T10:12:46;28.60;1.00
52127;DHT22;38120;53.176;6.614;2022-08-14T10:15:21;28.80;99.90
52127;DHT22;38120;53.176;6.614;2022-08-14T10:17:50;28.80;99.90
52127;DHT22;38120;53.176;6.614;2022-08-14T10:20:36;28.80;99.90
52127;DHT22;38120;53.176;6.614;2022-08-14T10:23:17;29.00;99.90
52127;DHT22;38120;53.176;6.614;2022-08-14T10:25:52;29.10;99.90
52127;DHT22;38120;53.176;6.614;2022-08-14T10:28:21;29.10;99.90
52127;DHT22;38120;53.176;6.614;2022-08-14T10:30:50;29.20;99.90
52127;DHT22;38120;53.176;6.614;2022-08-14T10:33:27;29.20;99.90
52127;DHT22;38120;53.176;6.614;2022-08-14T10:35:54;29.30;99.90
52127;DHT22;38120;53.176;6.614;2022-08-14T10:38:29;29.40;99.90
52127;DHT22;38120;53.176;6.614;2022-08-14T10:41:12;29.50;99.90
52127;DHT22;38120;53.176;6.614;2022-08-14T10:43:40;29.40;99.90
52127;DHT22;38120;53.176;6.614;2022-08-14T10:46:14;29.40;99.90
52127;DHT22;38120;53.176;6.614;2022-08-14T10:48:41;29.50;99.90
52127;DHT22;38120;53.176;6.614;2022-08-14T10:51:07;29.50;99.90
52127;DHT22;38120;53.176;6.614;2022-08-14T10:53:35;29.40;99.90
52127;DHT22;38120;53.176;6.614;2022-08-14T10:56:08;29.50;99.90
52127;DHT22;38120;53.176;6.614;2022-08-14T10:58:34;29.60;99.90
52127;DHT22;38120;53.176;6.614;2022-08-14T11:01:02;29.80;99.90
52127;DHT22;38120;53.176;6.614;2022-08-14T11:03:37;29.80;99.90
52127;DHT22;38120;53.176;6.614;2022-08-14T11:06:29;29.70;99.90
52127;DHT22;38120;53.176;6.614;2022-08-14T11:08:56;29.80;99.90
52127;DHT22;38120;53.176;6.614;2022-08-14T11:11:23;30.70;99.90
52127;DHT22;38120;53.176;6.614;2022-08-14T11:13:54;30.00;99.90
52127;DHT22;38120;53.176;6.614;2022-08-14T11:16:23;30.20;99.90
52127;DHT22;38120;53.176;6.614;2022-08-14T11:18:50;30.10;99.90
52127;DHT22;38120;53.176;6.614;2022-08-14T11:21:17;30.10;99.90
52127;DHT22;38120;53.176;6.614;2022-08-14T11:23:46;30.20;99.90
52127;DHT22;38120;53.176;6.614;2022-08-14T11:26:14;30.30;99.90
52127;DHT22;38120;53.176;6.614;2022-08-14T11:28:45;30.30;99.90
52127;DHT22;38120;53.176;6.614;2022-08-14T11:31:12;30.50;99.90
52127;DHT22;38120;53.176;6.614;2022-08-14T11:33:41;30.60;99.90
52127;DHT22;38120;53.176;6.614;2022-08-14T11:36:09;30.90;99.90
52127;DHT22;38120;53.176;6.614;2022-08-14T11:38:37;30.90;99.90
52127;DHT22;38120;53.176;6.614;2022-08-14T11:41:03;30.70;99.90
52127;DHT22;38120;53.176;6.614;2022-08-14T11:43:30;30.90;99.90
52127;DHT22;38120;53.176;6.614;2022-08-14T11:45:56;30.90;99.90
52127;DHT22;38120;53.176;6.614;2022-08-14T11:48:24;30.80;99.90
52127;DHT22;38120;53.176;6.614;2022-08-14T11:50:51;30.90;99.90
52127;DHT22;38120;53.176;6.614;2022-08-14T11:53:28;30.80;99.90
52127;DHT22;38120;53.176;6.614;2022-08-14T11:55:57;30.90;99.90
52127;DHT22;38120;53.176;6.614;2022-08-14T11:58:28;31.10;99.90
52127;DHT22;38120;53.176;6.614;2022-08-14T12:00:57;31.20;99.90
52127;DHT22;38120;53.176;6.614;2022-08-14T12:06:09;31.20;99.90
52127;DHT22;38120;53.176;6.614;2022-08-14T12:08:37;31.30;99.90
52127;DHT22;38120;53.176;6.614;2022-08-14T12:11:05;31.40;99.90
52127;DHT22;38120;53.176;6.614;2022-08-14T12:13:32;31.70;99.90
52127;DHT22;38120;53.176;6.614;2022-08-14T12:16:04;31.50;99.90
52127;DHT22;38120;53.176;6.614;2022-08-14T12:18:33;31.50;99.90
52127;DHT22;38120;53.176;6.614;2022-08-14T12:21:21;31.50;99.90
52127;DHT22;38120;53.176;6.614;2022-08-14T12:24:04;31.80;99.90
52127;DHT22;38120;53.176;6.614;2022-08-14T12:26:29;31.60;99.90
52127;DHT22;38120;53.176;6.614;2022-08-14T12:29:13;31.60;99.90
52127;DHT22;38120;53.176;6.614;2022-08-14T12:31:39;31.80;99.90
52127;DHT22;38120;53.176;6.614;2022-08-14T12:34:14;31.70;99.90
52127;DHT22;38120;53.176;6.614;2022-08-14T12:36:42;31.70;98.90
52127;DHT22;38120;53.176;6.614;2022-08-14T12:39:19;31.80;96.20
52127;DHT22;38120;53.176;6.614;2022-08-14T12:41:51;32.00;97.50
52127;DHT22;38120;53.176;6.614;2022-08-14T12:44:28;32.00;95.80
52127;DHT22;38120;53.176;6.614;2022-08-14T12:47:08;32.00;94.90
52127;DHT22;38120;53.176;6.614;2022-08-14T12:49:35;32.00;93.50
52127;DHT22;38120;53.176;6.614;2022-08-14T12:52:02;32.00;95.40
52127;DHT22;38120;53.176;6.614;2022-08-14T12:54:28;31.80;91.70
52127;DHT22;38120;53.176;6.614;2022-08-14T12:57:10;31.70;92.10
52127;DHT22;38120;53.176;6.614;2022-08-14T12:59:38;31.90;93.90
52127;DHT22;38120;53.176;6.614;2022-08-14T13:02:21;31.80;88.10
52127;DHT22;38120;53.176;6.614;2022-08-14T13:04:48;32.00;85.00
52127;DHT22;38120;53.176;6.614;2022-08-14T13:07:14;32.00;84.20
52127;DHT22;38120;53.176;6.614;2022-08-14T13:09:40;32.10;83.10
52127;DHT22;38120;53.176;6.614;2022-08-14T13:12:06;32.00;78.60
52127;DHT22;38120;53.176;6.614;2022-08-14T13:14:32;31.60;78.60
52127;DHT22;38120;53.176;6.614;2022-08-14T13:17:00;31.40;83.10
52127;DHT22;38120;53.176;6.614;2022-08-14T13:19:28;31.50;81.30
52127;DHT22;38120;53.176;6.614;2022-08-14T13:21:56;31.80;85.40
52127;DHT22;38120;53.176;6.614;2022-08-14T13:24:23;31.40;77.70
52127;DHT22;38120;53.176;6.614;2022-08-14T13:26:52;31.70;80.90
52127;DHT22;38120;53.176;6.614;2022-08-14T13:29:26;31.90;79.90
52127;DHT22;38120;53.176;6.614;2022-08-14T13:31:54;31.90;77.10
52127;DHT22;38120;53.176;6.614;2022-08-14T13:34:25;31.80;74.50
52127;DHT22;38120;53.176;6.614;2022-08-14T13:36:52;31.90;80.60
52127;DHT22;38120;53.176;6.614;2022-08-14T13:39:20;32.30;79.30
52127;DHT22;38120;53.176;6.614;2022-08-14T13:41:47;32.40;77.40
52127;DHT22;38120;53.176;6.614;2022-08-14T13:44:14;32.50;77.40
52127;DHT22;38120;53.176;6.614;2022-08-14T13:46:44;32.60;72.20
52127;DHT22;38120;53.176;6.614;2022-08-14T13:49:10;32.50;72.50
52127;DHT22;38120;53.176;6.614;2022-08-14T13:51:46;32.70;67.00
52127;DHT22;38120;53.176;6.614;2022-08-14T13:54:18;32.70;71.60
52127;DHT22;38120;53.176;6.614;2022-08-14T13:56:46;32.70;65.50
52127;DHT22;38120;53.176;6.614;2022-08-14T13:59:13;32.60;60.50
52127;DHT22;38120;53.176;6.614;2022-08-14T14:01:39;32.70;60.00
52127;DHT22;38120;53.176;6.614;2022-08-14T14:04:15;32.80;61.50
52127;DHT22;38120;53.176;6.614;2022-08-14T14:06:43;32.80;58.90
52127;DHT22;38120;53.176;6.614;2022-08-14T14:09:14;32.60;56.70
52127;DHT22;38120;53.176;6.614;2022-08-14T14:11:42;32.50;54.50
52127;DHT22;38120;53.176;6.614;2022-08-14T14:14:08;32.30;52.10
52127;DHT22;38120;53.176;6.614;2022-08-14T14:16:38;32.20;54.40
52127;DHT22;38120;53.176;6.614;2022-08-14T14:19:05;32.30;53.40
52127;DHT22;38120;53.176;6.614;2022-08-14T14:21:33;32.10;55.60
52127;DHT22;38120;53.176;6.614;2022-08-14T14:24:00;32.10;55.50
52127;DHT22;38120;53.176;6.614;2022-08-14T14:26:25;32.10;54.70
52127;DHT22;38120;53.176;6.614;2022-08-14T14:28:55;32.20;52.40
52127;DHT22;38120;53.176;6.614;2022-08-14T14:31:23;32.40;55.80
52127;DHT22;38120;53.176;6.614;2022-08-14T14:33:52;32.30;51.00
52127;DHT22;38120;53.176;6.614;2022-08-14T14:36:22;32.40;52.70
52127;DHT22;38120;53.176;6.614;2022-08-14T14:38:53;32.40;52.80
52127;DHT22;38120;53.176;6.614;2022-08-14T14:41:21;32.30;49.10
52127;DHT22;38120;53.176;6.614;2022-08-14T14:43:49;32.30;48.80
52127;DHT22;38120;53.176;6.614;2022-08-14T14:46:17;32.20;48.60
52127;DHT22;38120;53.176;6.614;2022-08-14T14:48:44;32.30;47.90
52127;DHT22;38120;53.176;6.614;2022-08-14T14:51:12;32.20;50.00
52127;DHT22;38120;53.176;6.614;2022-08-14T14:53:39;32.40;52.20
52127;DHT22;38120;53.176;6.614;2022-08-14T14:56:06;32.30;50.50
52127;DHT22;38120;53.176;6.614;2022-08-14T14:58:39;32.40;48.60
52127;DHT22;38120;53.176;6.614;2022-08-14T15:01:07;32.50;49.50
52127;DHT22;38120;53.176;6.614;2022-08-14T15:03:37;32.50;49.60
52127;DHT22;38120;53.176;6.614;2022-08-14T15:06:04;32.60;49.30
52127;DHT22;38120;53.176;6.614;2022-08-14T15:08:30;32.50;46.70
52127;DHT22;38120;53.176;6.614;2022-08-14T15:10:57;32.60;45.80
52127;DHT22;38120;53.176;6.614;2022-08-14T15:13:25;32.60;44.50
52127;DHT22;38120;53.176;6.614;2022-08-14T15:15:51;32.50;42.60
52127;DHT22;38120;53.176;6.614;2022-08-14T15:18:18;32.50;42.10
52127;DHT22;38120;53.176;6.614;2022-08-14T15:20:46;32.50;41.30
52127;DHT22;38120;53.176;6.614;2022-08-14T15:23:12;32.40;40.00
52127;DHT22;38120;53.176;6.614;2022-08-14T15:25:39;32.20;37.60
52127;DHT22;38120;53.176;6.614;2022-08-14T15:28:05;32.20;40.00
52127;DHT22;38120;53.176;6.614;2022-08-14T15:30:38;32.30;41.60
52127;DHT22;38120;53.176;6.614;2022-08-14T15:33:04;32.10;40.20
52127;DHT22;38120;53.176;6.614;2022-08-14T15:35:30;31.80;40.00
52127;DHT22;38120;53.176;6.614;2022-08-14T15:37:59;31.70;40.00
52127;DHT22;38120;53.176;6.614;2022-08-14T15:40:36;31.70;46.90
52127;DHT22;38120;53.176;6.614;2022-08-14T15:43:06;31.90;43.10
52127;DHT22;38120;53.176;6.614;2022-08-14T15:45:39;31.90;41.00
52127;DHT22;38120;53.176;6.614;2022-08-14T15:48:08;32.10;43.50
52127;DHT22;38120;53.176;6.614;2022-08-14T15:50:34;32.00;41.20
52127;DHT22;38120;53.176;6.614;2022-08-14T15:53:00;31.80;41.50
52127;DHT22;38120;53.176;6.614;2022-08-14T15:55:26;31.70;41.30
52127;DHT22;38120;53.176;6.614;2022-08-14T15:57:51;31.70;42.60
52127;DHT22;38120;53.176;6.614;2022-08-14T16:00:18;31.80;46.60